Time;durP1;ratioP1;P1;durP2;ratioP2;P2;SDS_P1;SDS_P2;PMS_P1;PMS_P2;Temp;Humidity;BMP_temperature;BMP_pressure;BME280_temperature;BME280_humidity;BME280_pressure;Samples;Min_cycle;Max_cycle;Signal;HPM_P1;HPM_P2
2021/12/10 00:01:04;;;;;;;59.60;24.05;;;4.30;99.90;;;;;;7398809;19;20010;-75
2021/12/10 00:03:36;;;;;;;51.95;22.15;;;4.30;99.90;;;;;;7399332;19;20015;-75
2021/12/10 00:06:10;;;;;;;54.13;23.40;;;4.40;99.90;;;;;;7403297;19;20052;-76
2021/12/10 00:08:42;;;;;;;60.63;23.45;;;4.50;99.90;;;;;;7402054;19;20483;-76
2021/12/10 00:11:17;;;;;;;55.35;22.80;;;4.40;99.90;;;;;;7399138;19;20078;-75
2021/12/10 00:13:47;;;;;;;57.85;22.85;;;4.50;99.90;;;;;;7396805;19;20027;-75
2021/12/10 00:16:19;;;;;;;49.47;21.35;;;4.60;99.90;;;;;;7398514;19;20021;-76
2021/12/10 00:18:54;;;;;;;53.15;22.00;;;4.50;99.90;;;;;;7397951;19;20039;-75
2021/12/10 00:21:25;;;;;;;56.45;20.75;;;4.10;99.90;;;;;;7396801;19;20090;-75
2021/12/10 00:23:57;;;;;;;50.80;22.00;;;4.50;99.90;;;;;;7399660;19;20387;-75
2021/12/10 00:26:28;;;;;;;59.13;23.52;;;4.70;99.90;;;;;;7399189;19;20015;-75
2021/12/10 00:29:02;;;;;;;57.20;23.50;;;4.40;99.90;;;;;;7400842;19;20168;-75
2021/12/10 00:31:45;;;;;;;52.20;22.92;;;4.50;99.90;;;;;;7397637;19;20006;-75
2021/12/10 00:34:19;;;;;;;61.72;23.08;;;4.40;99.90;;;;;;7401374;19;20041;-75
2021/12/10 00:36:49;;;;;;;53.53;22.30;;;4.30;99.90;;;;;;7397958;19;20030;-75
2021/12/10 00:39:22;;;;;;;56.08;22.67;;;4.30;99.90;;;;;;7401362;19;20078;-75
2021/12/10 00:41:55;;;;;;;56.13;21.73;;;4.40;99.90;;;;;;7396602;19;20015;-75
2021/12/10 00:44:24;;;;;;;58.20;22.13;;;4.30;99.90;;;;;;7400621;19;20022;-75
2021/12/10 00:46:54;;;;;;;52.45;22.48;;;4.40;99.90;;;;;;7397289;19;20019;-75
2021/12/10 00:49:24;;;;;;;53.72;22.95;;;4.40;99.90;;;;;;7402578;19;20014;-75
2021/12/10 00:51:53;;;;;;;55.17;22.98;;;4.10;99.90;;;;;;7398002;19;20409;-75
2021/12/10 00:54:22;;;;;;;59.50;23.60;;;4.70;99.90;;;;;;7400824;19;20053;-75
2021/12/10 00:56:54;;;;;;;54.17;23.02;;;4.30;99.90;;;;;;7397289;19;20018;-75
2021/12/10 00:59:23;;;;;;;54.20;22.88;;;4.30;99.90;;;;;;7401695;19;20010;-75
2021/12/10 01:01:53;;;;;;;59.10;23.67;;;4.20;99.90;;;;;;7395259;19;20070;-75
2021/12/10 01:04:27;;;;;;;54.13;22.23;;;4.60;99.90;;;;;;7397357;19;20014;-75
2021/12/10 01:07:00;;;;;;;49.92;21.65;;;4.50;99.90;;;;;;7396906;19;20019;-75
2021/12/10 01:09:33;;;;;;;52.97;23.38;;;4.40;99.90;;;;;;7397031;19;20006;-75
2021/12/10 01:12:20;;;;;;;53.95;21.40;;;4.30;99.90;;;;;;7396662;19;20010;-75
2021/12/10 01:15:06;;;;;;;55.45;22.10;;;4.30;99.90;;;;;;7396967;19;20422;-75
2021/12/10 01:25:54;;;;;;;60.47;22.75;;;;;;;;;;7399242;19;20017;-75
2021/12/10 01:28:26;;;;;;;58.08;23.02;;;4.30;99.90;;;;;;7396640;19;20010;-75
2021/12/10 01:30:55;;;;;;;60.08;22.15;;;4.10;99.90;;;;;;7395826;19;20093;-75
2021/12/10 01:33:24;;;;;;;65.10;23.60;;;;;;;;;;7396319;19;20014;-75
2021/12/10 01:35:57;;;;;;;57.65;23.60;;;4.30;99.90;;;;;;7396409;19;20423;-75
2021/12/10 01:38:27;;;;;;;56.45;23.20;;;4.20;99.90;;;;;;7395811;19;20018;-75
2021/12/10 01:41:00;;;;;;;58.00;23.50;;;4.30;99.90;;;;;;7395719;19;20018;-75
2021/12/10 01:43:34;;;;;;;58.35;24.92;;;4.40;99.90;;;;;;7394747;19;20081;-75
2021/12/10 01:46:10;;;;;;;59.40;24.15;;;4.00;99.90;;;;;;7397179;19;20021;-75
2021/12/10 01:48:42;;;;;;;63.80;23.02;;;4.10;99.90;;;;;;7395693;19;20572;-75
2021/12/10 01:51:13;;;;;;;68.28;26.80;;;4.40;99.90;;;;;;7396548;19;20010;-75
2021/12/10 01:53:43;;;;;;;52.97;23.40;;;;;;;;;;7398501;19;20014;-75
2021/12/10 01:56:17;;;;;;;56.58;23.85;;;4.20;99.90;;;;;;7396005;19;20096;-75
2021/12/10 01:58:49;;;;;;;59.80;22.50;;;4.30;99.90;;;;;;7396010;19;20372;-75
2021/12/10 02:01:21;;;;;;;61.03;24.80;;;4.40;99.90;;;;;;7394831;19;20048;-75
2021/12/10 02:03:51;;;;;;;66.30;23.65;;;4.50;99.90;;;;;;7395236;19;20043;-75
2021/12/10 02:06:20;;;;;;;55.55;23.42;;;4.80;99.90;;;;;;7395771;19;20547;-75
2021/12/10 02:08:49;;;;;;;57.33;22.77;;;;;;;;;;7395032;19;20082;-75
2021/12/10 02:11:20;;;;;;;54.95;22.45;;;4.30;99.90;;;;;;7396873;19;20018;-75
2021/12/10 02:13:51;;;;;;;59.10;23.08;;;4.40;99.90;;;;;;7394706;19;20018;-75
2021/12/10 02:16:21;;;;;;;46.35;20.75;;;4.60;99.90;;;;;;7395970;19;20022;-75
2021/12/10 02:18:51;;;;;;;54.38;21.95;;;4.90;99.90;;;;;;7394595;19;20013;-75
2021/12/10 02:21:24;;;;;;;55.63;21.30;;;4.40;99.90;;;;;;7395474;19;20019;-75
2021/12/10 02:23:58;;;;;;;52.85;22.67;;;4.40;99.90;;;;;;7394283;19;20102;-75
2021/12/10 02:26:30;;;;;;;49.83;19.75;;;4.40;99.90;;;;;;7395598;19;20389;-75
2021/12/10 02:28:59;;;;;;;47.15;21.17;;;4.40;99.90;;;;;;7394044;19;20031;-75
2021/12/10 02:31:29;;;;;;;50.60;19.70;;;4.20;99.90;;;;;;7395563;19;20014;-75
2021/12/10 02:33:58;;;;;;;42.13;18.88;;;4.60;99.90;;;;;;7394540;19;20101;-75
2021/12/10 02:36:30;;;;;;;41.95;18.98;;;4.50;99.90;;;;;;7396018;19;20011;-75
2021/12/10 02:39:00;;;;;;;47.80;19.67;;;4.30;99.90;;;;;;7394257;19;20082;-75
2021/12/10 02:41:31;;;;;;;44.17;18.98;;;4.90;99.90;;;;;;7396025;19;20014;-75
2021/12/10 02:44:02;;;;;;;49.08;19.50;;;4.30;99.90;;;;;;7394151;19;20018;-75
2021/12/10 02:46:32;;;;;;;43.03;20.20;;;4.60;99.90;;;;;;7396366;19;20421;-75
2021/12/10 02:49:01;;;;;;;50.70;21.42;;;4.40;99.90;;;;;;7393987;19;20025;-75
2021/12/10 02:51:35;;;;;;;47.97;19.58;;;4.50;99.90;;;;;;7395990;19;20066;-75
2021/12/10 02:54:05;;;;;;;43.63;19.75;;;4.50;99.90;;;;;;7393287;19;20015;-76
2021/12/10 02:56:34;;;;;;;40.83;18.40;;;4.50;99.90;;;;;;7393529;19;20433;-75
2021/12/10 02:59:05;;;;;;;42.53;18.85;;;4.60;99.90;;;;;;7393697;19;20488;-76
2021/12/10 03:01:39;;;;;;;40.85;18.00;;;4.90;99.90;;;;;;7395475;19;20031;-75
2021/12/10 03:04:09;;;;;;;41.22;17.75;;;4.40;99.90;;;;;;7397274;19;20014;-75
2021/12/10 03:06:46;;;;;;;37.53;17.95;;;4.50;99.90;;;;;;7391688;19;20511;-75
2021/12/10 03:09:16;;;;;;;45.10;20.52;;;4.80;99.90;;;;;;7393498;19;20018;-76
2021/12/10 03:11:48;;;;;;;43.92;19.42;;;;;;;;;;7393050;19;20021;-75
2021/12/10 03:14:20;;;;;;;43.03;19.20;;;4.90;99.90;;;;;;7391771;19;20029;-75
2021/12/10 03:16:51;;;;;;;46.25;19.88;;;4.90;99.90;;;;;;7393752;19;20017;-75
2021/12/10 03:19:21;;;;;;;50.42;21.38;;;4.70;99.90;;;;;;7393603;19;20047;-75
2021/12/10 03:21:53;;;;;;;50.65;21.98;;;4.40;99.90;;;;;;7394748;19;20074;-75
2021/12/10 03:24:25;;;;;;;49.53;20.63;;;4.50;99.90;;;;;;7396034;19;20010;-74
2021/12/10 03:26:57;;;;;;;48.25;20.83;;;4.40;99.90;;;;;;7392760;19;20472;-75
2021/12/10 03:29:28;;;;;;;44.60;19.70;;;4.50;99.90;;;;;;7392792;19;20015;-75
2021/12/10 03:32:00;;;;;;;42.85;19.48;;;4.30;99.90;;;;;;7392369;19;20100;-75
2021/12/10 03:34:29;;;;;;;42.13;19.08;;;4.40;99.90;;;;;;7392533;19;20381;-75
2021/12/10 03:37:01;;;;;;;43.95;19.33;;;4.40;99.90;;;;;;7393195;19;20015;-75
2021/12/10 03:39:31;;;;;;;45.08;19.30;;;4.40;99.90;;;;;;7392036;19;20014;-75
2021/12/10 03:42:01;;;;;;;40.25;19.80;;;4.10;99.90;;;;;;7392415;19;20366;-75
2021/12/10 03:44:31;;;;;;;43.88;20.85;;;4.40;99.90;;;;;;7390964;19;20015;-75
2021/12/10 03:47:01;;;;;;;44.63;21.08;;;4.70;99.90;;;;;;7394229;19;20026;-75
2021/12/10 03:49:30;;;;;;;55.13;21.92;;;4.40;99.90;;;;;;7392575;19;20007;-75
2021/12/10 03:52:01;;;;;;;50.47;20.95;;;4.40;99.90;;;;;;7391841;19;20010;-75
2021/12/10 03:54:31;;;;;;;50.95;20.08;;;4.30;99.90;;;;;;7395578;19;20551;-75
2021/12/10 03:57:00;;;;;;;49.33;19.65;;;4.20;99.90;;;;;;7391812;19;20014;-75
2021/12/10 03:59:30;;;;;;;48.40;20.73;;;4.30;99.90;;;;;;7391727;19;20015;-75
2021/12/10 04:02:01;;;;;;;45.50;18.90;;;4.10;99.90;;;;;;7390874;19;20010;-75
2021/12/10 04:04:33;;;;;;;44.47;19.65;;;4.30;99.90;;;;;;7394919;19;20014;-75
2021/12/10 04:07:10;;;;;;;49.72;21.25;;;4.40;99.90;;;;;;7391902;19;20018;-75
2021/12/10 04:09:40;;;;;;;52.05;21.15;;;4.70;99.90;;;;;;7391446;19;20370;-75
2021/12/10 04:12:11;;;;;;;47.63;21.63;;;4.30;99.90;;;;;;7391069;19;20017;-75
2021/12/10 04:14:41;;;;;;;51.97;22.75;;;4.40;99.90;;;;;;7393039;19;20021;-75
2021/12/10 04:17:11;;;;;;;49.38;21.50;;;4.10;99.90;;;;;;7394948;19;20031;-76
2021/12/10 04:19:41;;;;;;;51.20;21.55;;;4.20;99.90;;;;;;7398873;19;20036;-76
2021/12/10 04:22:13;;;;;;;48.40;22.00;;;4.30;99.90;;;;;;7398226;19;20062;-76
2021/12/10 04:24:44;;;;;;;49.50;22.52;;;4.30;99.90;;;;;;7398868;19;20031;-75
2021/12/10 04:27:14;;;;;;;50.03;21.40;;;;;;;;;;7398645;19;20011;-75
2021/12/10 04:29:44;;;;;;;52.03;22.33;;;;;;;;;;7397030;19;20010;-75
2021/12/10 04:32:15;;;;;;;43.95;20.15;;;4.40;99.90;;;;;;7398472;19;20010;-75
2021/12/10 04:34:44;;;;;;;45.65;21.58;;;4.10;99.90;;;;;;7398159;19;20014;-76
2021/12/10 04:37:16;;;;;;;55.50;21.95;;;4.80;99.90;;;;;;7398346;19;20019;-76
2021/12/10 04:39:47;;;;;;;45.90;20.70;;;;;;;;;;7398395;19;20090;-76
2021/12/10 04:42:19;;;;;;;42.72;20.48;;;4.40;99.90;;;;;;7396971;19;20770;-75
2021/12/10 04:44:50;;;;;;;51.47;20.85;;;4.40;99.90;;;;;;7396460;19;20022;-75
2021/12/10 04:47:19;;;;;;;45.63;20.85;;;4.50;99.90;;;;;;7397710;19;20354;-75
2021/12/10 04:49:48;;;;;;;50.78;22.45;;;4.00;99.90;;;;;;7397407;19;20014;-75
2021/12/10 04:52:20;;;;;;;43.83;20.17;;;4.70;99.90;;;;;;7399443;19;20362;-76
2021/12/10 04:54:49;;;;;;;43.33;20.48;;;4.30;99.90;;;;;;7397437;19;20018;-75
2021/12/10 04:57:19;;;;;;;46.38;20.98;;;4.30;99.90;;;;;;7397454;19;20051;-75
2021/12/10 04:59:48;;;;;;;53.95;20.40;;;4.30;99.90;;;;;;7399674;19;20022;-75
2021/12/10 05:02:19;;;;;;;50.13;21.92;;;4.30;99.90;;;;;;7399047;19;20010;-76
2021/12/10 05:04:48;;;;;;;47.42;20.05;;;4.30;99.90;;;;;;7396998;19;20007;-75
2021/12/10 05:07:20;;;;;;;45.33;21.10;;;4.30;99.90;;;;;;7400688;19;20360;-76
2021/12/10 05:09:49;;;;;;;42.60;19.42;;;4.30;99.90;;;;;;7397452;19;20490;-76
2021/12/10 05:12:19;;;;;;;44.85;18.98;;;4.20;99.90;;;;;;7401039;19;20030;-75
2021/12/10 05:14:48;;;;;;;43.53;19.08;;;4.10;99.90;;;;;;7398276;19;20509;-76
2021/12/10 05:17:18;;;;;;;47.35;19.02;;;4.20;99.90;;;;;;7396673;19;20070;-76
2021/12/10 05:19:47;;;;;;;37.22;18.90;;;4.60;99.90;;;;;;7398195;19;20070;-76
2021/12/10 05:22:19;;;;;;;43.17;20.48;;;4.30;99.90;;;;;;7395833;19;20010;-76
2021/12/10 05:24:49;;;;;;;45.42;19.88;;;4.10;99.90;;;;;;7397210;19;20074;-76
2021/12/10 05:27:18;;;;;;;42.42;19.40;;;4.20;99.90;;;;;;7395936;19;20037;-75
2021/12/10 05:29:48;;;;;;;41.40;18.58;;;;;;;;;;7399180;19;20078;-76
2021/12/10 05:32:17;;;;;;;39.03;18.67;;;4.20;99.90;;;;;;7396554;19;20138;-75
2021/12/10 05:34:47;;;;;;;41.25;18.85;;;4.20;99.90;;;;;;7400335;19;20531;-76
2021/12/10 05:37:16;;;;;;;41.47;19.45;;;3.80;99.90;;;;;;7396523;19;20041;-77
2021/12/10 05:39:48;;;;;;;43.63;19.95;;;3.80;99.90;;;;;;7398977;19;20472;-76
2021/12/10 05:42:18;;;;;;;39.67;18.33;;;4.00;99.90;;;;;;7395905;19;20014;-77
2021/12/10 05:44:47;;;;;;;41.97;19.58;;;3.70;99.90;;;;;;7398054;19;20010;-77
2021/12/10 05:47:17;;;;;;;44.75;19.70;;;3.90;99.90;;;;;;7397047;19;20031;-77
2021/12/10 05:49:47;;;;;;;39.67;19.30;;;3.90;99.90;;;;;;7395922;19;20027;-77
2021/12/10 05:52:16;;;;;;;43.97;20.38;;;;;;;;;;7397568;19;20507;-77
2021/12/10 05:54:50;;;;;;;41.17;18.45;;;3.80;99.90;;;;;;7395102;19;20018;-77
2021/12/10 05:57:19;;;;;;;39.90;19.17;;;3.70;99.90;;;;;;7398485;19;20029;-77
2021/12/10 05:59:48;;;;;;;40.33;19.17;;;3.70;99.90;;;;;;7394872;19;20022;-76
2021/12/10 06:02:17;;;;;;;40.15;18.50;;;4.00;99.90;;;;;;7397891;19;20019;-77
2021/12/10 06:04:46;;;;;;;38.50;18.15;;;;;;;;;;7399244;19;20039;-75
2021/12/10 06:07:15;;;;;;;33.08;17.23;;;3.60;99.90;;;;;;7399576;19;20014;-77
2021/12/10 06:09:44;;;;;;;31.17;16.00;;;4.10;99.90;;;;;;7395589;19;20014;-76
2021/12/10 06:12:16;;;;;;;30.95;15.15;;;3.40;99.90;;;;;;7394934;19;20018;-77
2021/12/10 06:14:45;;;;;;;34.50;16.02;;;3.90;99.90;;;;;;7395585;19;20022;-74
2021/12/10 06:17:14;;;;;;;31.48;15.95;;;3.60;99.90;;;;;;7395175;19;20029;-74
2021/12/10 06:19:43;;;;;;;32.25;16.13;;;3.70;99.90;;;;;;7397335;19;20014;-74
2021/12/10 06:22:12;;;;;;;27.58;14.75;;;4.20;99.90;;;;;;7394359;19;20390;-74
2021/12/10 06:24:41;;;;;;;29.08;14.65;;;3.60;99.90;;;;;;7398398;19;20014;-74
2021/12/10 06:27:10;;;;;;;29.77;15.05;;;3.30;99.90;;;;;;7394864;19;20086;-74
2021/12/10 06:29:43;;;;;;;28.83;15.23;;;3.30;99.90;;;;;;7398424;19;20014;-75
2021/12/10 06:32:12;;;;;;;28.98;14.05;;;;;;;;;;7398081;19;20014;-74
2021/12/10 06:34:41;;;;;;;29.45;13.98;;;3.60;99.90;;;;;;7397180;19;20095;-74
2021/12/10 06:37:10;;;;;;;30.27;14.90;;;2.90;99.90;;;;;;7396430;19;20102;-74
2021/12/10 06:39:39;;;;;;;27.27;15.40;;;;;;;;;;7394022;19;20022;-75
2021/12/10 06:42:09;;;;;;;28.60;14.55;;;2.90;99.90;;;;;;7393747;19;20044;-75
2021/12/10 06:44:38;;;;;;;26.50;13.90;;;2.80;99.90;;;;;;7395466;19;20035;-74
2021/12/10 06:47:10;;;;;;;26.88;13.90;;;2.70;99.90;;;;;;7394697;19;20101;-74
2021/12/10 06:49:39;;;;;;;29.90;14.02;;;2.60;99.90;;;;;;7395354;19;20043;-76
2021/12/10 06:52:09;;;;;;;26.63;14.13;;;2.50;99.90;;;;;;7397243;19;20526;-76
2021/12/10 06:54:39;;;;;;;27.15;13.52;;;2.20;99.90;;;;;;7393719;19;20021;-75
2021/12/10 06:57:08;;;;;;;27.10;14.18;;;2.40;99.90;;;;;;7396889;19;20031;-75
2021/12/10 06:59:37;;;;;;;28.02;13.48;;;;;;;;;;7395419;19;20015;-75
2021/12/10 07:02:10;;;;;;;25.08;12.57;;;2.30;99.90;;;;;;7393285;19;20010;-75
2021/12/10 07:04:41;;;;;;;28.60;13.48;;;2.20;99.90;;;;;;7395666;19;20439;-75
2021/12/10 07:07:10;;;;;;;29.88;13.93;;;2.10;99.90;;;;;;7394347;19;20027;-75
2021/12/10 07:09:40;;;;;;;26.10;13.55;;;1.70;99.90;;;;;;7394735;19;20090;-75
2021/12/10 07:12:12;;;;;;;26.73;13.75;;;2.30;99.90;;;;;;7397171;19;20081;-75
2021/12/10 07:14:43;;;;;;;28.05;13.13;;;2.50;99.90;;;;;;7397295;19;20463;-74
2021/12/10 07:17:14;;;;;;;24.77;13.45;;;1.80;99.90;;;;;;7391973;19;20011;-75
2021/12/10 07:19:44;;;;;;;28.02;13.68;;;2.10;99.90;;;;;;7394612;19;20019;-75
2021/12/10 07:22:13;;;;;;;27.15;13.13;;;1.50;99.90;;;;;;7392920;19;20035;-75
2021/12/10 07:24:42;;;;;;;28.67;14.35;;;2.30;99.90;;;;;;7390933;19;20021;-75
2021/12/10 07:27:12;;;;;;;27.90;13.35;;;1.80;99.90;;;;;;7392701;19;20363;-75
2021/12/10 07:29:42;;;;;;;27.45;12.85;;;1.80;99.90;;;;;;7392795;19;20007;-75
2021/12/10 07:32:14;;;;;;;26.45;12.95;;;1.40;99.90;;;;;;7392006;19;20010;-75
2021/12/10 07:34:43;;;;;;;29.67;13.73;;;2.20;99.90;;;;;;7392498;19;20011;-75
2021/12/10 07:37:13;;;;;;;28.45;12.23;;;1.70;99.90;;;;;;7392617;19;20015;-75
2021/12/10 07:39:42;;;;;;;30.00;12.77;;;1.80;99.90;;;;;;7392772;19;20011;-75
2021/12/10 07:42:13;;;;;;;25.52;12.48;;;1.70;99.90;;;;;;7392472;19;20006;-75
2021/12/10 07:44:42;;;;;;;25.25;12.15;;;;;;;;;;7390647;19;20484;-75
2021/12/10 07:47:15;;;;;;;26.92;12.98;;;1.90;99.90;;;;;;7392383;19;20018;-75
2021/12/10 07:49:46;;;;;;;25.13;12.13;;;1.80;99.90;;;;;;7392004;19;20022;-75
2021/12/10 07:52:22;;;;;;;23.60;11.93;;;2.00;99.90;;;;;;7395815;19;20019;-74
2021/12/10 07:54:53;;;;;;;26.15;12.60;;;2.00;99.90;;;;;;7399896;19;20006;-75
2021/12/10 07:57:24;;;;;;;22.30;11.55;;;2.10;99.90;;;;;;7400122;19;20011;-75
2021/12/10 07:59:53;;;;;;;25.48;12.02;;;2.10;99.90;;;;;;7398902;19;20011;-75
2021/12/10 08:02:26;;;;;;;24.35;12.43;;;2.20;99.90;;;;;;7399152;19;20018;-75
2021/12/10 08:04:56;;;;;;;25.38;11.45;;;;;;;;;;7397062;19;20028;-75
2021/12/10 08:07:26;;;;;;;22.42;10.95;;;;;;;;;;7399255;19;20018;-75
2021/12/10 08:09:55;;;;;;;22.23;11.75;;;;;;;;;;7399022;19;20022;-75
2021/12/10 08:12:24;;;;;;;22.58;11.27;;;2.20;99.90;;;;;;7398737;19;20354;-75
2021/12/10 08:14:55;;;;;;;23.67;11.40;;;2.30;99.90;;;;;;7398802;19;20480;-75
2021/12/10 08:17:26;;;;;;;24.20;11.70;;;2.10;99.90;;;;;;7398554;19;20019;-75
2021/12/10 08:19:56;;;;;;;23.05;11.45;;;2.00;99.90;;;;;;7398701;19;20010;-75
2021/12/10 08:22:25;;;;;;;22.77;11.60;;;;;;;;;;7398561;19;20036;-75
2021/12/10 08:24:54;;;;;;;20.23;11.20;;;1.90;99.90;;;;;;7396099;19;20082;-75
2021/12/10 08:27:23;;;;;;;25.05;11.30;;;;;;;;;;7398522;19;20035;-75
2021/12/10 08:29:53;;;;;;;21.13;11.15;;;;;;;;;;7397893;19;20011;-75
2021/12/10 08:32:23;;;;;;;23.85;11.48;;;2.70;99.90;;;;;;7398072;19;20434;-76
2021/12/10 08:34:54;;;;;;;25.25;11.00;;;2.50;99.90;;;;;;7398741;19;20032;-75
2021/12/10 08:37:23;;;;;;;20.75;10.52;;;2.50;99.90;;;;;;7397849;19;20010;-75
2021/12/10 08:39:52;;;;;;;23.85;10.82;;;;;;;;;;7397921;19;20095;-75
2021/12/10 08:42:21;;;;;;;19.20;9.27;;;2.40;99.90;;;;;;7397818;19;20010;-75
2021/12/10 08:44:51;;;;;;;20.42;9.45;;;2.50;99.90;;;;;;7395636;19;20399;-75
2021/12/10 08:47:20;;;;;;;22.42;10.65;;;2.50;99.90;;;;;;7398176;19;20338;-75
2021/12/10 08:49:50;;;;;;;20.15;10.23;;;2.80;99.90;;;;;;7397463;19;20566;-75
2021/12/10 08:52:22;;;;;;;21.85;11.32;;;2.50;99.90;;;;;;7397349;19;20039;-75
2021/12/10 08:54:51;;;;;;;22.33;10.73;;;2.60;99.90;;;;;;7397952;19;20016;-75
2021/12/10 08:57:21;;;;;;;20.10;10.30;;;2.90;99.90;;;;;;7401403;19;20018;-75
2021/12/10 08:59:51;;;;;;;22.90;10.52;;;;;;;;;;7396812;19;20035;-75
2021/12/10 09:02:20;;;;;;;23.15;11.25;;;;;;;;;;7397494;19;20022;-75
2021/12/10 09:04:50;;;;;;;21.08;10.50;;;2.10;99.90;;;;;;7394095;19;20007;-75
2021/12/10 09:07:23;;;;;;;21.67;11.13;;;2.50;99.90;;;;;;7397451;19;20092;-75
2021/12/10 09:09:52;;;;;;;18.13;10.50;;;2.50;99.90;;;;;;7396949;19;20035;-75
2021/12/10 09:12:22;;;;;;;21.10;10.52;;;;;;;;;;7396681;19;20082;-75
2021/12/10 09:14:54;;;;;;;20.20;10.70;;;2.70;99.90;;;;;;7397081;19;20006;-75
2021/12/10 09:17:28;;;;;;;21.95;10.35;;;2.50;99.90;;;;;;7396720;19;20010;-75
2021/12/10 09:19:59;;;;;;;24.60;10.40;;;2.70;99.90;;;;;;7396762;19;20011;-76
2021/12/10 09:22:30;;;;;;;22.00;10.38;;;2.70;99.90;;;;;;7396421;19;20499;-75
2021/12/10 09:25:00;;;;;;;19.70;10.27;;;2.80;99.90;;;;;;7394993;19;20086;-75
2021/12/10 09:27:29;;;;;;;19.98;10.07;;;;;;;;;;7396371;19;20354;-75
2021/12/10 09:29:58;;;;;;;21.63;10.32;;;2.90;99.90;;;;;;7395762;19;20014;-75
2021/12/10 09:32:28;;;;;;;19.15;10.15;;;3.00;99.90;;;;;;7396083;19;20014;-75
2021/12/10 09:35:02;;;;;;;20.02;11.05;;;3.00;99.90;;;;;;7396097;19;20021;-75
2021/12/10 09:37:35;;;;;;;20.50;10.37;;;3.00;99.90;;;;;;7396032;19;20413;-75
2021/12/10 09:40:05;;;;;;;20.05;10.38;;;3.00;99.90;;;;;;7396138;19;20010;-75
2021/12/10 09:42:35;;;;;;;16.55;9.05;;;3.10;99.90;;;;;;7396236;19;20010;-75
2021/12/10 09:45:04;;;;;;;19.70;10.13;;;3.20;99.90;;;;;;7394361;19;20018;-75
2021/12/10 09:47:34;;;;;;;23.75;10.65;;;3.30;99.90;;;;;;7395850;19;20010;-76
2021/12/10 09:50:06;;;;;;;18.70;9.60;;;3.30;99.90;;;;;;7395395;19;20010;-75
2021/12/10 09:52:39;;;;;;;19.73;9.75;;;3.40;99.90;;;;;;7396063;19;20018;-75
2021/12/10 09:55:12;;;;;;;21.35;9.93;;;3.40;99.90;;;;;;7397758;19;20019;-75
2021/12/10 09:57:44;;;;;;;20.40;9.68;;;3.40;99.90;;;;;;7395475;19;20018;-76
2021/12/10 10:00:22;;;;;;;19.85;9.80;;;3.80;99.90;;;;;;7394778;19;20022;-75
2021/12/10 10:02:54;;;;;;;18.35;9.88;;;3.50;99.90;;;;;;7395700;19;20025;-75
2021/12/10 10:05:27;;;;;;;17.30;9.30;;;3.40;99.90;;;;;;7393617;19;20017;-76
2021/12/10 10:08:01;;;;;;;18.50;9.10;;;3.50;99.90;;;;;;7394932;19;20018;-75
2021/12/10 10:10:32;;;;;;;16.42;9.52;;;3.50;99.90;;;;;;7395057;19;20011;-76
2021/12/10 10:13:02;;;;;;;16.35;8.30;;;3.40;99.90;;;;;;7396125;19;20011;-76
2021/12/10 10:15:36;;;;;;;16.40;8.73;;;3.60;99.90;;;;;;7394637;19;20018;-75
2021/12/10 10:18:09;;;;;;;16.50;9.05;;;3.70;99.90;;;;;;7394984;19;20015;-75
2021/12/10 10:20:47;;;;;;;17.48;8.85;;;3.70;99.90;;;;;;7394598;19;20015;-75
2021/12/10 10:23:19;;;;;;;20.70;9.00;;;3.70;99.90;;;;;;7394387;19;20018;-76
2021/12/10 10:25:51;;;;;;;17.75;8.48;;;3.60;99.90;;;;;;7393092;19;20030;-76
2021/12/10 10:28:21;;;;;;;16.73;8.65;;;3.80;99.90;;;;;;7394732;19;20048;-75
2021/12/10 10:30:58;;;;;;;18.20;8.48;;;3.90;99.90;;;;;;7393981;19;20022;-76
2021/12/10 10:33:28;;;;;;;14.38;8.57;;;3.90;99.90;;;;;;7394540;19;20017;-76
2021/12/10 10:36:01;;;;;;;21.40;9.18;;;4.00;99.90;;;;;;7394187;19;20006;-75
2021/12/10 10:38:33;;;;;;;17.98;8.20;;;4.10;99.90;;;;;;7394388;19;20077;-75
2021/12/10 10:41:06;;;;;;;16.80;8.57;;;4.10;99.90;;;;;;7394299;19;20378;-76
2021/12/10 10:43:40;;;;;;;16.35;8.52;;;4.10;99.90;;;;;;7392440;19;20011;-76
2021/12/10 10:46:11;;;;;;;16.08;8.07;;;4.10;99.90;;;;;;7393904;19;20023;-75
2021/12/10 10:48:40;;;;;;;14.18;7.88;;;4.20;99.90;;;;;;7393668;19;20022;-76
2021/12/10 10:51:13;;;;;;;13.73;7.55;;;4.20;99.90;;;;;;7394085;19;20014;-76
2021/12/10 10:53:49;;;;;;;13.95;7.35;;;4.40;99.90;;;;;;7395711;19;20015;-76
2021/12/10 10:56:21;;;;;;;16.15;8.68;;;4.40;99.90;;;;;;7393502;19;20014;-76
2021/12/10 10:58:55;;;;;;;15.98;8.57;;;4.20;99.90;;;;;;7393755;19;20085;-75
2021/12/10 11:01:29;;;;;;;15.98;8.68;;;4.20;99.90;;;;;;7392876;19;20011;-75
2021/12/10 11:04:02;;;;;;;16.30;8.07;;;3.90;99.90;;;;;;7393390;19;20022;-75
2021/12/10 11:06:34;;;;;;;13.63;7.55;;;4.20;99.90;;;;;;7392887;19;20015;-76
2021/12/10 11:09:14;;;;;;;14.25;7.88;;;4.30;99.90;;;;;;7395885;19;20017;-76
2021/12/10 11:11:49;;;;;;;13.85;7.50;;;4.30;99.90;;;;;;7379638;19;20053;-78
2021/12/10 11:14:22;;;;;;;16.35;9.23;;;4.60;99.90;;;;;;7390626;19;20010;-77
2021/12/10 11:16:54;;;;;;;13.43;7.63;;;4.40;99.90;;;;;;7393612;19;20048;-76
2021/12/10 11:19:26;;;;;;;13.90;7.50;;;4.20;99.90;;;;;;7393945;19;20034;-77
2021/12/10 11:22:00;;;;;;;13.25;7.25;;;4.30;99.90;;;;;;7389862;19;20043;-76
2021/12/10 11:24:37;;;;;;;16.05;7.93;;;4.40;99.90;;;;;;7386058;19;20039;-77
2021/12/10 11:27:12;;;;;;;12.95;7.85;;;4.60;99.90;;;;;;7393934;19;20022;-77
2021/12/10 11:29:50;;;;;;;13.38;6.90;;;4.60;99.90;;;;;;7395316;19;20427;-76
2021/12/10 11:32:22;;;;;;;13.85;7.72;;;4.30;99.90;;;;;;7397563;19;20010;-77
2021/12/10 11:34:55;;;;;;;13.82;7.30;;;4.60;99.90;;;;;;7393692;19;20018;-76
2021/12/10 11:37:47;;;;;;;13.75;7.93;;;4.90;99.90;;;;;;7396744;19;20033;-76
2021/12/10 11:40:49;;;;;;;13.25;7.38;;;4.60;99.90;;;;;;7396042;19;20074;-77
2021/12/10 11:43:34;;;;;;;15.40;6.65;;;4.70;99.90;;;;;;7397459;19;20043;-75
2021/12/10 11:46:27;;;;;;;15.03;7.00;;;4.80;99.90;;;;;;7394802;19;20078;-79
2021/12/10 11:49:07;;;;;;;11.57;6.57;;;4.70;99.90;;;;;;7397353;19;20484;-76
2021/12/10 11:51:41;;;;;;;11.30;6.65;;;4.80;99.90;;;;;;7398984;19;20018;-76
2021/12/10 11:54:21;;;;;;;13.43;6.63;;;4.50;99.90;;;;;;7394707;19;20050;-75
2021/12/10 11:56:58;;;;;;;11.10;6.60;;;4.70;99.90;;;;;;7394305;19;20014;-76
2021/12/10 11:59:30;;;;;;;12.93;7.15;;;4.70;99.90;;;;;;7394800;19;20014;-75
2021/12/10 12:02:02;;;;;;;13.15;7.18;;;4.80;99.90;;;;;;7390268;19;22986;-76
2021/12/10 12:04:35;;;;;;;12.80;6.75;;;4.80;99.90;;;;;;7394887;19;20015;-76
2021/12/10 12:07:25;;;;;;;11.50;6.32;;;5.00;99.90;;;;;;7393892;19;20014;-76
2021/12/10 12:09:57;;;;;;;12.77;6.60;;;4.80;99.90;;;;;;7394659;19;20014;-76
2021/12/10 12:12:37;;;;;;;11.98;6.82;;;5.30;99.90;;;;;;7393313;19;20102;-76
2021/12/10 12:15:28;;;;;;;14.90;7.13;;;4.90;99.90;;;;;;7394543;19;20539;-77
2021/12/10 12:18:00;;;;;;;12.88;6.53;;;4.90;99.90;;;;;;7396128;19;20611;-77
2021/12/10 12:20:41;;;;;;;16.00;6.60;;;4.90;99.90;;;;;;7395902;19;20041;-76
2021/12/10 12:26:04;;;;;;;12.00;6.32;;;5.00;99.90;;;;;;7390809;19;20019;-75
2021/12/10 12:28:39;;;;;;;11.82;6.35;;;4.70;99.90;;;;;;7395566;19;20519;-76
